createdAt,value
2023-04-08T00:00:08.192Z,22.23
2023-04-08T00:02:37.437Z,22.30
2023-04-08T00:05:05.377Z,28.40
2023-04-08T00:07:32.610Z,25.27
2023-04-08T00:09:59.715Z,23.85
2023-04-08T00:12:26.845Z,23.60
2023-04-08T00:14:53.933Z,24.73
2023-04-08T00:17:21.331Z,22.17
2023-04-08T00:19:48.423Z,21.17
2023-04-08T00:22:15.602Z,20.90
2023-04-08T00:24:43.280Z,22.77
2023-04-08T00:27:10.497Z,31.00
2023-04-08T00:29:37.952Z,31.17
2023-04-08T00:32:05.208Z,28.13
2023-04-08T00:34:32.660Z,29.02
2023-04-08T00:36:59.869Z,25.10
2023-04-08T00:39:27.106Z,15.13
2023-04-08T00:41:54.761Z,13.30
2023-04-08T00:44:21.912Z,14.35
2023-04-08T00:46:49.192Z,17.15
2023-04-08T00:49:17.692Z,16.40
2023-04-08T00:51:44.900Z,14.95
2023-04-08T00:54:12.034Z,14.65
2023-04-08T00:56:39.582Z,16.67
2023-04-08T00:59:06.809Z,17.00
2023-04-08T01:01:48.343Z,17.75
2023-04-08T01:04:44.871Z,17.10
2023-04-08T01:07:30.442Z,16.80
2023-04-08T01:10:04.187Z,16.80
2023-04-08T01:12:33.586Z,18.05
2023-04-08T01:15:09.243Z,21.00
2023-04-08T01:17:38.602Z,21.85
2023-04-08T01:20:07.775Z,20.20
2023-04-08T01:23:06.886Z,21.88
2023-04-08T01:25:36.961Z,23.77
2023-04-08T01:28:16.799Z,27.08
2023-04-08T01:30:47.470Z,30.88
2023-04-08T01:33:17.264Z,22.33
2023-04-08T01:35:46.344Z,19.13
2023-04-08T01:38:18.184Z,17.48
2023-04-08T01:40:47.177Z,17.58
2023-04-08T01:43:16.897Z,17.30
2023-04-08T01:45:46.634Z,18.70
2023-04-08T01:48:15.121Z,19.42
2023-04-08T01:50:44.180Z,18.65
2023-04-08T01:53:13.594Z,19.48
2023-04-08T01:55:42.267Z,19.45
2023-04-08T01:58:17.364Z,18.95
2023-04-08T02:00:45.347Z,19.48
2023-04-08T02:03:17.872Z,18.98
2023-04-08T02:05:46.901Z,20.48
2023-04-08T02:08:14.180Z,22.50
2023-04-08T02:10:41.352Z,22.77
2023-04-08T02:13:08.950Z,22.23
2023-04-08T02:15:42.426Z,21.35
2023-04-08T02:18:35.170Z,19.95
2023-04-08T02:21:11.701Z,19.27
2023-04-08T02:26:15.858Z,20.38
2023-04-08T02:28:43.508Z,19.67
2023-04-08T02:31:16.039Z,17.10
2023-04-08T02:33:46.835Z,17.48
2023-04-08T02:36:16.295Z,16.90
2023-04-08T02:38:49.245Z,18.50
2023-04-08T02:41:17.326Z,17.83
2023-04-08T02:43:44.437Z,18.17
2023-04-08T02:46:12.225Z,17.13
2023-04-08T02:48:39.396Z,16.73
2023-04-08T02:51:06.716Z,17.30
2023-04-08T02:53:33.891Z,19.50
2023-04-08T02:56:01.423Z,17.70
2023-04-08T02:58:28.624Z,19.48
2023-04-08T03:00:56.009Z,19.50
2023-04-08T03:03:28.656Z,18.48
2023-04-08T03:05:56.683Z,18.98
2023-04-08T03:08:24.347Z,18.75
2023-04-08T03:10:51.804Z,18.15
2023-04-08T03:13:18.946Z,17.92
2023-04-08T03:15:46.428Z,15.18
2023-04-08T03:18:13.897Z,15.85
2023-04-08T03:20:41.376Z,16.75
2023-04-08T03:23:08.533Z,16.42
2023-04-08T03:26:08.127Z,16.63
2023-04-08T03:28:35.750Z,16.30
2023-04-08T03:31:06.646Z,15.55
2023-04-08T03:33:33.813Z,16.27
2023-04-08T03:36:00.939Z,17.02
2023-04-08T03:38:28.141Z,16.42
2023-04-08T03:40:55.262Z,16.83
2023-04-08T03:43:22.380Z,15.43
2023-04-08T03:45:49.535Z,14.30
2023-04-08T03:48:17.135Z,14.57
2023-04-08T03:50:44.195Z,14.57
2023-04-08T03:53:12.333Z,14.68
2023-04-08T03:56:12.804Z,13.10
2023-04-08T03:58:39.864Z,13.80
2023-04-08T04:01:07.034Z,14.77
2023-04-08T04:03:34.531Z,13.20
2023-04-08T04:06:01.721Z,14.32
2023-04-08T04:08:28.783Z,11.70
2023-04-08T04:10:55.913Z,12.00
2023-04-08T04:13:23.029Z,13.10
2023-04-08T04:15:50.256Z,11.82
2023-04-08T04:18:17.467Z,11.23
2023-04-08T04:20:44.718Z,10.77
2023-04-08T04:23:12.022Z,10.93
2023-04-08T04:25:42.078Z,10.40
2023-04-08T04:28:10.220Z,10.10
2023-04-08T04:30:38.687Z,10.15
2023-04-08T04:33:06.959Z,9.25
2023-04-08T04:35:34.322Z,9.90
2023-04-08T04:38:01.706Z,10.00
2023-04-08T04:40:28.803Z,9.35
2023-04-08T04:42:56.093Z,9.45
2023-04-08T04:45:23.195Z,9.02
2023-04-08T04:47:50.375Z,9.00
2023-04-08T04:50:17.618Z,9.27
2023-04-08T04:52:44.826Z,9.88
2023-04-08T04:55:11.885Z,9.05
2023-04-08T04:57:39.046Z,9.80
2023-04-08T05:00:06.912Z,9.52
2023-04-08T05:02:34.311Z,9.38
2023-04-08T05:05:01.630Z,9.07
2023-04-08T05:07:28.850Z,10.20
2023-04-08T05:09:56.345Z,10.02
2023-04-08T05:12:23.414Z,9.43
2023-04-08T05:14:50.511Z,9.10
2023-04-08T05:17:17.763Z,9.90
2023-04-08T05:19:44.874Z,9.38
2023-04-08T05:22:11.941Z,9.27
2023-04-08T05:24:39.140Z,9.30
2023-04-08T05:27:06.741Z,10.00
2023-04-08T05:29:33.787Z,9.80
2023-04-08T05:32:01.169Z,10.27
2023-04-08T05:34:28.259Z,10.00
2023-04-08T05:36:55.508Z,9.48
2023-04-08T05:39:22.539Z,9.80
2023-04-08T05:41:49.880Z,9.82
2023-04-08T05:44:16.991Z,10.00
2023-04-08T05:46:44.169Z,9.38
2023-04-08T05:49:11.300Z,9.90
2023-04-08T05:51:39.637Z,9.65
2023-04-08T05:54:06.896Z,11.48
2023-04-08T05:56:34.054Z,12.30
2023-04-08T05:59:01.677Z,10.90
2023-04-08T06:01:28.926Z,10.55
2023-04-08T06:03:56.927Z,11.05
2023-04-08T06:06:26.154Z,12.23
2023-04-08T06:08:53.304Z,11.95
2023-04-08T06:11:20.526Z,12.30
2023-04-08T06:13:48.272Z,12.02
2023-04-08T06:16:20.337Z,12.07
2023-04-08T06:18:49.184Z,13.38
2023-04-08T06:21:17.045Z,11.65
2023-04-08T06:23:44.304Z,12.98
2023-04-08T06:26:11.422Z,13.75
2023-04-08T06:28:38.501Z,13.02
2023-04-08T06:31:06.328Z,13.38
2023-04-08T06:33:33.448Z,13.02
2023-04-08T06:36:04.542Z,13.27
2023-04-08T06:38:34.798Z,12.32
2023-04-08T06:41:05.592Z,11.07
2023-04-08T06:43:34.423Z,10.93
2023-04-08T06:46:01.774Z,9.70
2023-04-08T06:48:30.898Z,11.68
2023-04-08T06:50:59.299Z,10.60
2023-04-08T06:53:29.446Z,10.75
2023-04-08T06:55:56.633Z,9.63
2023-04-08T06:58:23.908Z,7.15
2023-04-08T07:00:51.085Z,7.38
2023-04-08T07:03:18.297Z,7.32
2023-04-08T07:05:45.510Z,6.38
2023-04-08T07:08:12.582Z,6.75
2023-04-08T07:10:39.788Z,8.07
2023-04-08T07:13:06.955Z,7.60
2023-04-08T07:15:34.103Z,5.63
2023-04-08T07:18:01.261Z,6.45
2023-04-08T07:20:29.281Z,6.57
2023-04-08T07:22:58.008Z,5.38
2023-04-08T07:25:25.117Z,6.88
2023-04-08T07:27:53.027Z,6.00
2023-04-08T07:30:20.453Z,6.95
2023-04-08T07:32:47.660Z,6.00
2023-04-08T07:35:14.998Z,6.25
2023-04-08T07:37:42.038Z,6.90
2023-04-08T07:40:09.754Z,6.95
2023-04-08T07:42:37.734Z,7.10
2023-04-08T07:45:06.229Z,6.40
2023-04-08T07:47:33.400Z,6.03
2023-04-08T07:50:00.508Z,6.85
2023-04-08T07:52:27.755Z,6.18
2023-04-08T07:54:54.806Z,6.65
2023-04-08T07:57:22.286Z,6.22
2023-04-08T07:59:49.510Z,6.25
2023-04-08T08:02:16.685Z,5.80
2023-04-08T08:04:44.068Z,6.40
2023-04-08T08:07:11.513Z,5.97
2023-04-08T08:09:38.631Z,4.70
2023-04-08T08:12:06.387Z,5.13
2023-04-08T08:14:33.447Z,5.40
2023-04-08T08:17:01.651Z,6.05
2023-04-08T08:19:28.700Z,5.95
2023-04-08T08:21:56.457Z,5.90
2023-04-08T08:24:23.666Z,4.78
2023-04-08T08:26:50.840Z,6.25
2023-04-08T08:29:17.933Z,6.10
2023-04-08T08:31:45.093Z,5.93
2023-04-08T08:34:12.191Z,4.97
2023-04-08T08:36:39.337Z,6.40
2023-04-08T08:39:06.448Z,6.05
2023-04-08T08:41:36.098Z,6.10
2023-04-08T08:44:05.593Z,5.30
2023-04-08T08:46:32.883Z,5.72
2023-04-08T08:49:00.393Z,5.05
2023-04-08T08:51:28.726Z,5.10
2023-04-08T08:53:55.854Z,4.40
2023-04-08T08:56:23.006Z,5.88
2023-04-08T08:58:50.040Z,5.32
2023-04-08T09:01:39.046Z,6.15
2023-04-08T09:04:20.877Z,5.22
2023-04-08T09:06:52.749Z,4.05
2023-04-08T09:09:20.108Z,4.63
2023-04-08T09:11:47.802Z,5.25
2023-04-08T09:14:22.814Z,5.07
2023-04-08T09:16:50.901Z,4.57
2023-04-08T09:19:18.158Z,4.47
2023-04-08T09:21:45.571Z,5.00
2023-04-08T09:25:21.792Z,5.47
2023-04-08T09:27:48.867Z,5.47
2023-04-08T09:30:16.665Z,5.07
2023-04-08T09:32:49.917Z,5.55
2023-04-08T09:35:18.563Z,5.07
2023-04-08T09:37:46.648Z,4.90
2023-04-08T09:40:16.391Z,5.70
2023-04-08T09:42:50.691Z,4.85
2023-04-08T10:17:26.727Z,7.00
2023-04-08T10:19:54.593Z,6.72
2023-04-08T10:22:46.270Z,6.70
2023-04-08T10:25:16.894Z,6.05
2023-04-08T10:27:45.596Z,7.00
2023-04-08T10:30:33.521Z,6.68
2023-04-08T10:33:01.600Z,8.70
2023-04-08T10:35:33.236Z,8.27
2023-04-08T10:38:01.415Z,8.98
2023-04-08T10:40:28.639Z,7.03
2023-04-08T10:42:59.485Z,7.13
2023-04-08T10:45:26.750Z,8.13
2023-04-08T10:47:53.866Z,7.93
2023-04-08T10:50:24.252Z,7.07
2023-04-08T10:52:53.359Z,7.50
2023-04-08T10:55:25.557Z,7.35
2023-04-08T10:57:54.181Z,7.40
2023-04-08T11:00:39.474Z,7.20
2023-04-08T11:03:08.792Z,6.47
2023-04-08T11:05:39.395Z,6.68
2023-04-08T11:08:06.702Z,7.45
2023-04-08T11:10:38.955Z,6.20
2023-04-08T11:13:13.024Z,6.43
2023-04-08T11:15:40.200Z,7.43
2023-04-08T11:18:07.462Z,5.90
2023-04-08T11:20:37.240Z,6.20
2023-04-08T11:23:04.343Z,6.78
2023-04-08T11:25:32.173Z,6.20
2023-04-08T11:28:00.539Z,6.53
2023-04-08T11:30:29.320Z,7.22
2023-04-08T11:32:57.136Z,6.20
2023-04-08T11:35:24.418Z,7.25
2023-04-08T11:37:52.863Z,5.72
2023-04-08T11:40:22.285Z,5.78
2023-04-08T11:42:50.348Z,8.18
2023-04-08T11:45:22.481Z,6.50
2023-04-08T11:47:49.904Z,6.93
2023-04-08T11:50:24.916Z,6.75
2023-04-08T11:52:53.064Z,6.50
2023-04-08T11:55:23.077Z,7.13
2023-04-08T11:57:51.251Z,7.00
2023-04-08T12:00:19.321Z,7.15
2023-04-08T12:02:49.700Z,6.82
2023-04-08T12:05:17.799Z,6.88
2023-04-08T12:07:45.052Z,7.50
2023-04-08T12:10:12.477Z,7.18
2023-04-08T12:12:40.283Z,6.75
2023-04-08T12:15:08.530Z,7.15
2023-04-08T12:17:36.270Z,7.40
2023-04-08T12:20:04.418Z,6.85
2023-04-08T12:22:31.530Z,7.00
2023-04-08T12:24:59.289Z,7.25
2023-04-08T12:27:26.567Z,7.03
2023-04-08T12:29:53.603Z,7.78
2023-04-08T12:32:20.813Z,6.10
2023-04-08T12:34:47.974Z,6.57
2023-04-08T12:37:15.049Z,6.70
2023-04-08T12:39:42.108Z,7.03
2023-04-08T12:42:09.346Z,7.50
2023-04-08T12:44:36.548Z,6.65
2023-04-08T12:47:03.720Z,7.10
2023-04-08T12:49:39.521Z,6.70
2023-04-08T12:52:15.664Z,6.35
2023-04-08T12:54:42.743Z,6.78
2023-04-08T12:57:09.841Z,7.68
2023-04-08T12:59:38.195Z,7.22
2023-04-08T13:02:05.498Z,6.78
2023-04-08T13:04:32.641Z,7.15
2023-04-08T13:07:01.089Z,7.63
2023-04-08T13:09:28.523Z,7.72
2023-04-08T13:11:55.636Z,7.05
2023-04-08T13:14:22.703Z,7.43
2023-04-08T13:16:50.032Z,7.45
2023-04-08T13:19:17.191Z,7.15
2023-04-08T13:21:46.091Z,8.30
2023-04-08T13:24:13.563Z,7.10
2023-04-08T13:26:40.917Z,6.68
2023-04-08T13:29:07.959Z,6.25
2023-04-08T13:31:35.085Z,7.35
2023-04-08T13:34:02.251Z,6.88
2023-04-08T13:36:29.415Z,6.78
2023-04-08T13:38:56.898Z,6.10
2023-04-08T13:41:25.564Z,5.80
2023-04-08T13:43:52.753Z,6.00
2023-04-08T13:46:19.830Z,6.38
2023-04-08T13:48:46.981Z,6.43
2023-04-08T13:51:14.064Z,6.07
2023-04-08T13:53:41.117Z,5.63
2023-04-08T13:56:08.400Z,5.85
2023-04-08T13:58:38.145Z,7.00
2023-04-08T14:01:05.963Z,5.55
2023-04-08T14:03:33.384Z,5.90
2023-04-08T14:06:02.020Z,6.78
2023-04-08T14:08:29.306Z,7.22
2023-04-08T14:10:57.701Z,7.57
2023-04-08T14:13:24.863Z,6.40
2023-04-08T14:15:53.827Z,7.60
2023-04-08T14:18:21.026Z,7.63
2023-04-08T14:20:48.146Z,6.97
2023-04-08T14:23:17.087Z,7.07
2023-04-08T14:25:44.245Z,7.20
2023-04-08T14:28:11.657Z,7.38
2023-04-08T14:30:38.789Z,7.30
2023-04-08T14:33:06.432Z,7.28
2023-04-08T14:35:33.803Z,7.13
2023-04-08T14:38:01.273Z,7.15
2023-04-08T14:40:28.478Z,7.25
2023-04-08T14:42:55.557Z,6.13
2023-04-08T14:45:22.634Z,7.22
2023-04-08T14:47:49.749Z,6.82
2023-04-08T14:50:17.009Z,6.70
2023-04-08T14:52:45.473Z,7.43
2023-04-08T14:55:12.663Z,7.15
2023-04-08T14:57:39.801Z,7.35
2023-04-08T15:00:07.780Z,7.18
2023-04-08T15:02:34.953Z,6.60
2023-04-08T15:05:02.170Z,6.95
2023-04-08T15:07:29.244Z,6.70
2023-04-08T15:09:57.149Z,6.72
2023-04-08T15:12:24.660Z,6.68
2023-04-08T15:14:51.804Z,7.20
2023-04-08T15:17:19.058Z,6.80
2023-04-08T15:19:46.943Z,6.00
2023-04-08T15:22:14.072Z,6.63
2023-04-08T15:24:42.710Z,6.03
2023-04-08T15:27:09.943Z,5.63
2023-04-08T15:29:37.134Z,5.68
2023-04-08T15:32:04.248Z,5.90
2023-04-08T15:34:31.346Z,5.30
2023-04-08T15:36:58.611Z,5.72
2023-04-08T15:39:26.032Z,6.00
2023-04-08T15:41:53.398Z,6.10
2023-04-08T15:44:20.722Z,6.15
2023-04-08T15:46:47.874Z,5.63
2023-04-08T15:49:15.047Z,5.35
2023-04-08T15:51:44.676Z,4.38
2023-04-08T15:54:11.960Z,5.28
2023-04-08T15:56:39.085Z,5.00
2023-04-08T15:59:06.415Z,4.53
2023-04-08T16:01:33.906Z,4.82
2023-04-08T16:04:01.307Z,5.30
2023-04-08T16:06:28.570Z,4.65
2023-04-08T16:08:56.885Z,4.78
2023-04-08T16:11:25.353Z,5.50
2023-04-08T16:13:52.855Z,5.63
2023-04-08T16:16:20.193Z,5.78
2023-04-08T16:18:47.626Z,5.60
2023-04-08T16:21:14.917Z,6.63
2023-04-08T16:23:42.191Z,6.55
2023-04-08T16:26:09.305Z,6.47
2023-04-08T16:28:37.291Z,6.20
2023-04-08T16:31:04.485Z,6.32
2023-04-08T16:33:32.254Z,6.25
2023-04-08T16:36:00.694Z,6.65
2023-04-08T16:38:28.067Z,6.65
2023-04-08T16:40:58.555Z,5.97
2023-04-08T16:43:26.359Z,5.85
2023-04-08T16:45:54.178Z,3.60
2023-04-08T16:48:21.384Z,5.68
2023-04-08T16:50:48.434Z,5.38
2023-04-08T16:53:15.734Z,5.32
2023-04-08T16:55:42.774Z,5.75
2023-04-08T16:58:10.000Z,6.35
2023-04-08T17:00:37.774Z,5.25
2023-04-08T17:03:05.055Z,7.00
2023-04-08T17:05:32.252Z,7.13
2023-04-08T17:07:59.639Z,5.93
2023-04-08T17:10:26.894Z,7.20
2023-04-08T17:12:54.006Z,7.18
2023-04-08T17:15:21.256Z,5.97
2023-04-08T17:17:48.732Z,6.43
2023-04-08T17:20:15.860Z,6.80
2023-04-08T17:22:43.323Z,7.00
2023-04-08T17:25:10.935Z,7.30
2023-04-08T17:27:38.041Z,7.45
2023-04-08T17:30:05.594Z,8.00
2023-04-08T17:32:33.017Z,8.15
2023-04-08T17:35:00.156Z,8.13
2023-04-08T17:37:27.267Z,8.10
2023-04-08T17:39:54.383Z,7.45
2023-04-08T17:42:22.984Z,8.30
2023-04-08T17:44:50.099Z,9.32
2023-04-08T17:47:17.382Z,8.63
2023-04-08T17:49:44.528Z,8.73
2023-04-08T17:52:11.863Z,8.50
2023-04-08T17:54:39.157Z,7.68
2023-04-08T17:57:06.510Z,7.95
2023-04-08T17:59:34.165Z,8.02
2023-04-08T18:02:01.382Z,7.32
2023-04-08T18:04:29.978Z,8.10
2023-04-08T18:06:57.309Z,6.43
2023-04-08T18:09:24.390Z,6.70
2023-04-08T18:11:51.536Z,6.63
2023-04-08T18:15:27.687Z,6.25
2023-04-08T18:17:56.036Z,5.72
2023-04-08T18:20:23.168Z,6.05
2023-04-08T18:22:50.316Z,7.28
2023-04-08T18:25:17.673Z,5.97
2023-04-08T18:27:44.829Z,6.97
2023-04-08T18:30:12.224Z,6.50
2023-04-08T18:32:39.293Z,6.20
2023-04-08T18:35:06.621Z,6.55
2023-04-08T18:37:34.752Z,6.35
2023-04-08T18:40:03.822Z,7.65
2023-04-08T18:42:31.738Z,6.60
2023-04-08T18:44:58.839Z,6.93
2023-04-08T18:51:55.484Z,6.30
2023-04-08T18:54:28.773Z,6.22
2023-04-08T18:56:56.662Z,5.75
2023-04-08T18:59:23.816Z,6.60
2023-04-08T19:01:51.203Z,6.20
2023-04-08T19:04:18.433Z,8.32
2023-04-08T19:06:45.623Z,5.95
2023-04-08T19:09:14.464Z,5.97
2023-04-08T19:11:41.719Z,5.63
2023-04-08T19:14:08.952Z,5.38
2023-04-08T19:16:36.090Z,5.55
2023-04-08T19:19:03.605Z,5.93
2023-04-08T19:21:31.894Z,6.18
2023-04-08T19:23:59.074Z,7.00
2023-04-08T19:26:26.195Z,6.07
2023-04-08T19:28:53.427Z,7.65
2023-04-08T19:31:21.663Z,7.03
2023-04-08T19:33:48.968Z,6.13
2023-04-08T19:36:16.390Z,6.57
2023-04-08T19:38:43.494Z,5.60
2023-04-08T19:41:11.083Z,5.15
2023-04-08T19:43:38.220Z,5.63
2023-04-08T19:47:14.037Z,6.15
2023-04-08T19:49:41.131Z,6.32
2023-04-08T19:52:08.257Z,6.43
2023-04-08T19:54:35.522Z,6.05
2023-04-08T19:57:02.692Z,6.90
2023-04-08T19:59:29.864Z,8.10
2023-04-08T20:01:57.012Z,7.97
2023-04-08T20:04:24.345Z,7.30
2023-04-08T20:06:51.625Z,7.30
2023-04-08T20:09:18.721Z,6.57
2023-04-08T20:11:45.809Z,7.10
2023-04-08T20:14:13.011Z,7.55
2023-04-08T20:16:40.177Z,6.53
2023-04-08T20:19:07.257Z,7.68
2023-04-08T20:21:56.309Z,7.50
2023-04-08T20:24:23.871Z,7.22
2023-04-08T20:26:52.504Z,7.68
2023-04-08T20:29:19.893Z,6.95
2023-04-08T20:31:47.557Z,5.93
2023-04-08T20:34:14.826Z,5.93
2023-04-08T20:36:42.413Z,5.78
2023-04-08T20:39:12.929Z,6.03
2023-04-08T20:41:40.043Z,5.68
2023-04-08T20:44:09.817Z,7.30
2023-04-08T20:46:37.933Z,9.23
2023-04-08T20:49:05.871Z,10.18
2023-04-08T20:51:33.893Z,13.43
2023-04-08T20:54:01.174Z,12.45
2023-04-08T20:56:28.556Z,10.63
2023-04-08T20:58:58.238Z,10.77
2023-04-08T21:01:27.089Z,9.48
2023-04-08T21:07:45.030Z,7.70
2023-04-08T21:10:14.892Z,7.63
2023-04-08T21:12:41.959Z,8.45
2023-04-08T21:15:09.777Z,8.15
2023-04-08T21:17:37.426Z,9.05
2023-04-08T21:20:05.533Z,9.20
2023-04-08T21:22:32.935Z,9.25
2023-04-08T21:25:00.225Z,8.80
2023-04-08T21:27:29.290Z,9.48
2023-04-08T21:29:56.760Z,10.15
2023-04-08T21:32:24.439Z,8.40
2023-04-08T21:34:54.660Z,7.32
2023-04-08T21:37:22.890Z,7.80
2023-04-08T21:39:50.514Z,8.57
2023-04-08T21:42:17.873Z,9.38
2023-04-08T21:44:44.928Z,10.32
2023-04-08T21:47:12.020Z,11.20
2023-04-08T21:49:39.149Z,7.85
2023-04-08T21:52:06.886Z,8.73
2023-04-08T21:54:34.103Z,6.70
2023-04-08T21:57:01.620Z,6.35
2023-04-08T21:59:28.763Z,5.30
2023-04-08T22:01:56.764Z,6.43
2023-04-08T22:04:23.909Z,6.90
2023-04-08T22:06:51.406Z,6.22
2023-04-08T22:09:19.513Z,4.85
2023-04-08T22:11:46.596Z,6.55
2023-04-08T22:14:14.122Z,6.20
2023-04-08T22:16:41.859Z,6.75
2023-04-08T22:19:09.061Z,5.72
2023-04-08T22:21:36.490Z,6.55
2023-04-08T22:24:03.703Z,7.15
2023-04-08T22:26:30.814Z,9.70
2023-04-08T22:28:57.892Z,7.43
2023-04-08T22:31:25.053Z,7.93
2023-04-08T22:33:52.340Z,8.23
2023-04-08T22:36:19.533Z,8.10
2023-04-08T22:38:46.624Z,8.13
2023-04-08T22:41:23.827Z,8.50
2023-04-08T22:43:51.497Z,15.88
2023-04-08T22:46:20.211Z,10.93
2023-04-08T22:48:48.513Z,11.57
2023-04-08T22:51:15.814Z,18.50
2023-04-08T22:53:43.859Z,17.70
2023-04-08T22:56:11.147Z,19.33
2023-04-08T22:58:38.250Z,9.55
2023-04-08T23:01:17.264Z,8.68
2023-04-08T23:03:44.810Z,16.25
2023-04-08T23:06:11.932Z,11.88
2023-04-08T23:08:39.387Z,7.10
2023-04-08T23:11:07.252Z,8.40
2023-04-08T23:13:34.853Z,4.22
2023-04-08T23:16:02.507Z,3.83
2023-04-08T23:18:29.801Z,4.28
2023-04-08T23:20:58.216Z,4.03
2023-04-08T23:23:25.792Z,2.70
2023-04-08T23:25:55.717Z,2.97
2023-04-08T23:28:23.419Z,2.88
2023-04-08T23:30:50.529Z,4.20
2023-04-08T23:33:17.762Z,4.18
2023-04-08T23:35:45.159Z,4.38
2023-04-08T23:38:12.347Z,2.75
2023-04-08T23:40:39.621Z,2.75
2023-04-08T23:43:06.704Z,3.40
2023-04-08T23:45:33.816Z,4.43
2023-04-08T23:48:01.018Z,4.78
2023-04-08T23:50:28.378Z,4.53
2023-04-08T23:52:55.509Z,4.93
2023-04-08T23:55:22.608Z,4.93
2023-04-08T23:57:50.955Z,5.10
